Terminal Aerodrome Forecast
Issued by NWS

Home | Current Version | Previous Version | Text Only | Print | Product List | Glossary Off
Versions: 1 2 3 4 5 6 7 8 9 10 11 12 13 14 15 16 17 18

000
FTUS43 KFGF 251100
TAFBJI
TAF
KBJI 251123Z 2512/2612 17008KT 5SM -SN BKN006
     FM251400 29017G25KT 2SM -SN OVC005
     FM251800 30023G30KT 5SM -SN BKN007
     FM252300 32018G25KT P6SM BKN015
     FM260800 31010KT P6SM BKN025=

USA.gov is the U.S. government's official web portal to all federal, state and local government web resources and services.